sensor_id;sensor_type;location;lat;lon;timestamp;pressure;altitude;pressure_sealevel;temperature;humidity
56681;BME280;42558;52.388;13.390;2023-07-29T00:02:26;100361.04;;;15.76;100.00
56681;BME280;42558;52.388;13.390;2023-07-29T00:04:58;100362.30;;;15.75;100.00
56681;BME280;42558;52.388;13.390;2023-07-29T00:07:26;100355.80;;;15.70;100.00
56681;BME280;42558;52.388;13.390;2023-07-29T00:09:56;100357.15;;;15.64;100.00
56681;BME280;42558;52.388;13.390;2023-07-29T00:12:24;100354.58;;;15.55;100.00
56681;BME280;42558;52.388;13.390;2023-07-29T00:14:52;100357.65;;;15.50;100.00
56681;BME280;42558;52.388;13.390;2023-07-29T00:17:22;100354.35;;;15.45;100.00
56681;BME280;42558;52.388;13.390;2023-07-29T00:19:50;100349.98;;;15.41;100.00
56681;BME280;42558;52.388;13.390;2023-07-29T00:22:19;100351.96;;;15.38;100.00
56681;BME280;42558;52.388;13.390;2023-07-29T00:24:52;100352.36;;;15.34;100.00
56681;BME280;42558;52.388;13.390;2023-07-29T00:27:26;100345.48;;;15.33;100.00
56681;BME280;42558;52.388;13.390;2023-07-29T00:29:55;100344.93;;;15.34;100.00
56681;BME280;42558;52.388;13.390;2023-07-29T00:32:29;100342.64;;;15.33;100.00
56681;BME280;42558;52.388;13.390;2023-07-29T00:34:59;100347.90;;;15.36;100.00
56681;BME280;42558;52.388;13.390;2023-07-29T00:37:30;100347.04;;;15.35;100.00
56681;BME280;42558;52.388;13.390;2023-07-29T00:40:00;100346.04;;;15.29;100.00
56681;BME280;42558;52.388;13.390;2023-07-29T00:42:30;100349.27;;;15.26;100.00
56681;BME280;42558;52.388;13.390;2023-07-29T00:45:00;100350.90;;;15.23;100.00
56681;BME280;42558;52.388;13.390;2023-07-29T00:47:30;100349.01;;;15.19;100.00
56681;BME280;42558;52.388;13.390;2023-07-29T00:50:01;100347.24;;;15.18;100.00
56681;BME280;42558;52.388;13.390;2023-07-29T00:52:31;100346.42;;;15.13;100.00
56681;BME280;42558;52.388;13.390;2023-07-29T00:55:01;100346.48;;;15.09;100.00
56681;BME280;42558;52.388;13.390;2023-07-29T00:57:32;100344.91;;;15.07;100.00
56681;BME280;42558;52.388;13.390;2023-07-29T01:00:03;100343.89;;;15.02;100.00
56681;BME280;42558;52.388;13.390;2023-07-29T01:02:35;100340.23;;;14.98;100.00
56681;BME280;42558;52.388;13.390;2023-07-29T01:05:06;100335.80;;;14.96;100.00
56681;BME280;42558;52.388;13.390;2023-07-29T01:10:54;100329.86;;;14.92;100.00
56681;BME280;42558;52.388;13.390;2023-07-29T01:13:39;100326.50;;;14.90;100.00
56681;BME280;42558;52.388;13.390;2023-07-29T01:16:21;100319.84;;;14.85;100.00
56681;BME280;42558;52.388;13.390;2023-07-29T01:18:55;100309.05;;;14.83;100.00
56681;BME280;42558;52.388;13.390;2023-07-29T01:21:27;100308.52;;;14.84;100.00
56681;BME280;42558;52.388;13.390;2023-07-29T01:24:00;100297.75;;;14.81;100.00
56681;BME280;42558;52.388;13.390;2023-07-29T01:26:30;100296.15;;;14.82;100.00
56681;BME280;42558;52.388;13.390;2023-07-29T01:29:00;100300.26;;;14.79;100.00
56681;BME280;42558;52.388;13.390;2023-07-29T01:31:43;100304.71;;;14.75;100.00
56681;BME280;42558;52.388;13.390;2023-07-29T01:34:34;100304.39;;;14.73;100.00
56681;BME280;42558;52.388;13.390;2023-07-29T01:37:14;100306.41;;;14.67;100.00
56681;BME280;42558;52.388;13.390;2023-07-29T01:39:45;100308.55;;;14.65;100.00
56681;BME280;42558;52.388;13.390;2023-07-29T01:42:16;100309.80;;;14.62;100.00
56681;BME280;42558;52.388;13.390;2023-07-29T01:44:46;100308.92;;;14.62;100.00
56681;BME280;42558;52.388;13.390;2023-07-29T01:47:17;100315.41;;;14.67;100.00
56681;BME280;42558;52.388;13.390;2023-07-29T01:49:46;100315.39;;;14.69;100.00
56681;BME280;42558;52.388;13.390;2023-07-29T01:52:17;100316.66;;;14.67;100.00
56681;BME280;42558;52.388;13.390;2023-07-29T01:54:47;100310.84;;;14.64;100.00
56681;BME280;42558;52.388;13.390;2023-07-29T01:57:17;100311.77;;;14.62;100.00
56681;BME280;42558;52.388;13.390;2023-07-29T01:59:47;100311.80;;;14.57;100.00
56681;BME280;42558;52.388;13.390;2023-07-29T02:02:17;100311.13;;;14.55;100.00
56681;BME280;42558;52.388;13.390;2023-07-29T02:04:47;100314.52;;;14.50;100.00
56681;BME280;42558;52.388;13.390;2023-07-29T02:07:21;100315.27;;;14.48;100.00
56681;BME280;42558;52.388;13.390;2023-07-29T02:09:51;100315.45;;;14.46;100.00
56681;BME280;42558;52.388;13.390;2023-07-29T02:12:19;100317.55;;;14.44;100.00
56681;BME280;42558;52.388;13.390;2023-07-29T02:14:48;100315.63;;;14.42;100.00
56681;BME280;42558;52.388;13.390;2023-07-29T02:17:17;100317.76;;;14.41;100.00
56681;BME280;42558;52.388;13.390;2023-07-29T02:19:45;100316.17;;;14.41;100.00
56681;BME280;42558;52.388;13.390;2023-07-29T02:22:15;100319.91;;;14.39;100.00
56681;BME280;42558;52.388;13.390;2023-07-29T02:24:45;100324.52;;;14.37;100.00
56681;BME280;42558;52.388;13.390;2023-07-29T02:27:13;100323.82;;;14.35;100.00
56681;BME280;42558;52.388;13.390;2023-07-29T02:29:41;100322.45;;;14.33;100.00
56681;BME280;42558;52.388;13.390;2023-07-29T02:32:10;100319.27;;;14.29;100.00
56681;BME280;42558;52.388;13.390;2023-07-29T02:34:38;100317.52;;;14.29;100.00
56681;BME280;42558;52.388;13.390;2023-07-29T02:37:07;100317.89;;;14.27;100.00
56681;BME280;42558;52.388;13.390;2023-07-29T02:39:36;100314.36;;;14.26;100.00
56681;BME280;42558;52.388;13.390;2023-07-29T02:42:04;100311.36;;;14.25;100.00
56681;BME280;42558;52.388;13.390;2023-07-29T02:44:34;100309.07;;;14.24;100.00
56681;BME280;42558;52.388;13.390;2023-07-29T02:47:03;100309.60;;;14.26;100.00
56681;BME280;42558;52.388;13.390;2023-07-29T02:49:33;100309.61;;;14.23;100.00
56681;BME280;42558;52.388;13.390;2023-07-29T02:52:04;100309.83;;;14.19;100.00
56681;BME280;42558;52.388;13.390;2023-07-29T02:54:34;100310.89;;;14.19;100.00
56681;BME280;42558;52.388;13.390;2023-07-29T02:57:04;100314.09;;;14.16;100.00
56681;BME280;42558;52.388;13.390;2023-07-29T02:59:34;100312.66;;;14.17;100.00
56681;BME280;42558;52.388;13.390;2023-07-29T03:02:04;100314.27;;;14.18;100.00
56681;BME280;42558;52.388;13.390;2023-07-29T03:04:34;100318.33;;;14.15;100.00
56681;BME280;42558;52.388;13.390;2023-07-29T03:07:04;100320.46;;;14.14;100.00
56681;BME280;42558;52.388;13.390;2023-07-29T03:09:34;100318.66;;;14.19;100.00
56681;BME280;42558;52.388;13.390;2023-07-29T03:12:04;100322.13;;;14.27;100.00
56681;BME280;42558;52.388;13.390;2023-07-29T03:14:35;100321.73;;;14.33;100.00
56681;BME280;42558;52.388;13.390;2023-07-29T03:17:04;100320.15;;;14.32;100.00
56681;BME280;42558;52.388;13.390;2023-07-29T03:19:32;100313.26;;;14.31;100.00
56681;BME280;42558;52.388;13.390;2023-07-29T03:22:01;100311.44;;;14.37;100.00
56681;BME280;42558;52.388;13.390;2023-07-29T03:24:29;100307.66;;;14.44;100.00
56681;BME280;42558;52.388;13.390;2023-07-29T03:26:58;100304.14;;;14.41;100.00
56681;BME280;42558;52.388;13.390;2023-07-29T03:29:26;100300.11;;;14.38;100.00
56681;BME280;42558;52.388;13.390;2023-07-29T03:31:54;100301.02;;;14.34;100.00
56681;BME280;42558;52.388;13.390;2023-07-29T03:34:23;100308.28;;;14.34;100.00
56681;BME280;42558;52.388;13.390;2023-07-29T03:36:51;100306.55;;;14.31;100.00
56681;BME280;42558;52.388;13.390;2023-07-29T03:39:20;100305.64;;;14.32;100.00
56681;BME280;42558;52.388;13.390;2023-07-29T03:41:48;100308.30;;;14.31;100.00
56681;BME280;42558;52.388;13.390;2023-07-29T03:44:17;100303.70;;;14.32;100.00
56681;BME280;42558;52.388;13.390;2023-07-29T03:46:45;100306.14;;;14.36;100.00
56681;BME280;42558;52.388;13.390;2023-07-29T03:49:13;100305.59;;;14.38;100.00
56681;BME280;42558;52.388;13.390;2023-07-29T03:51:42;100303.41;;;14.44;100.00
56681;BME280;42558;52.388;13.390;2023-07-29T03:54:10;100302.52;;;14.48;100.00
56681;BME280;42558;52.388;13.390;2023-07-29T03:56:39;100297.36;;;14.53;100.00
56681;BME280;42558;52.388;13.390;2023-07-29T03:59:07;100295.18;;;14.58;100.00
56681;BME280;42558;52.388;13.390;2023-07-29T04:01:35;100291.70;;;14.67;100.00
56681;BME280;42558;52.388;13.390;2023-07-29T04:04:04;100291.83;;;14.72;100.00
56681;BME280;42558;52.388;13.390;2023-07-29T04:06:32;100291.79;;;14.77;100.00
56681;BME280;42558;52.388;13.390;2023-07-29T04:09:01;100290.10;;;14.85;100.00
56681;BME280;42558;52.388;13.390;2023-07-29T04:11:29;100287.40;;;14.88;100.00
56681;BME280;42558;52.388;13.390;2023-07-29T04:13:58;100282.84;;;15.00;100.00
56681;BME280;42558;52.388;13.390;2023-07-29T04:16:26;100279.55;;;15.08;100.00
56681;BME280;42558;52.388;13.390;2023-07-29T04:18:55;100280.91;;;15.12;100.00
56681;BME280;42558;52.388;13.390;2023-07-29T04:21:23;100279.70;;;15.11;100.00
56681;BME280;42558;52.388;13.390;2023-07-29T04:23:51;100275.17;;;15.06;100.00
56681;BME280;42558;52.388;13.390;2023-07-29T04:26:20;100276.57;;;15.06;100.00
56681;BME280;42558;52.388;13.390;2023-07-29T04:28:48;100277.91;;;15.12;100.00
56681;BME280;42558;52.388;13.390;2023-07-29T04:31:17;100284.10;;;15.13;100.00
56681;BME280;42558;52.388;13.390;2023-07-29T04:33:45;100280.02;;;15.14;100.00
56681;BME280;42558;52.388;13.390;2023-07-29T04:36:13;100286.77;;;15.12;100.00
56681;BME280;42558;52.388;13.390;2023-07-29T04:38:42;100285.12;;;15.15;100.00
56681;BME280;42558;52.388;13.390;2023-07-29T04:41:10;100287.38;;;15.20;100.00
56681;BME280;42558;52.388;13.390;2023-07-29T04:43:39;100291.73;;;15.23;100.00
56681;BME280;42558;52.388;13.390;2023-07-29T04:46:08;100294.73;;;15.26;100.00
56681;BME280;42558;52.388;13.390;2023-07-29T04:48:37;100286.80;;;15.36;100.00
56681;BME280;42558;52.388;13.390;2023-07-29T04:51:05;100285.48;;;15.54;100.00
56681;BME280;42558;52.388;13.390;2023-07-29T04:53:33;100283.98;;;15.61;100.00
56681;BME280;42558;52.388;13.390;2023-07-29T04:56:06;100283.85;;;15.71;100.00
56681;BME280;42558;52.388;13.390;2023-07-29T04:58:35;100281.75;;;15.80;100.00
56681;BME280;42558;52.388;13.390;2023-07-29T05:01:06;100288.61;;;15.84;100.00
56681;BME280;42558;52.388;13.390;2023-07-29T05:03:36;100286.14;;;15.84;100.00
56681;BME280;42558;52.388;13.390;2023-07-29T05:06:06;100278.83;;;15.87;100.00
56681;BME280;42558;52.388;13.390;2023-07-29T05:08:36;100277.11;;;15.93;100.00
56681;BME280;42558;52.388;13.390;2023-07-29T05:11:06;100278.08;;;15.99;100.00
56681;BME280;42558;52.388;13.390;2023-07-29T05:13:36;100273.41;;;16.14;100.00
56681;BME280;42558;52.388;13.390;2023-07-29T05:16:07;100272.15;;;16.35;100.00
56681;BME280;42558;52.388;13.390;2023-07-29T05:18:37;100274.57;;;16.58;100.00
56681;BME280;42558;52.388;13.390;2023-07-29T05:21:06;100270.96;;;16.72;100.00
56681;BME280;42558;52.388;13.390;2023-07-29T05:23:38;100264.98;;;16.79;100.00
56681;BME280;42558;52.388;13.390;2023-07-29T05:26:07;100264.09;;;16.95;100.00
56681;BME280;42558;52.388;13.390;2023-07-29T05:28:37;100269.94;;;16.96;100.00
56681;BME280;42558;52.388;13.390;2023-07-29T05:31:07;100272.88;;;17.01;100.00
56681;BME280;42558;52.388;13.390;2023-07-29T05:33:37;100276.77;;;17.09;100.00
56681;BME280;42558;52.388;13.390;2023-07-29T05:36:07;100275.81;;;17.12;100.00
56681;BME280;42558;52.388;13.390;2023-07-29T05:38:37;100275.73;;;17.08;100.00
56681;BME280;42558;52.388;13.390;2023-07-29T05:41:07;100276.14;;;17.14;100.00
56681;BME280;42558;52.388;13.390;2023-07-29T05:43:37;100275.16;;;17.50;100.00
56681;BME280;42558;52.388;13.390;2023-07-29T05:46:07;100276.21;;;17.67;100.00
56681;BME280;42558;52.388;13.390;2023-07-29T05:48:37;100274.45;;;17.82;100.00
56681;BME280;42558;52.388;13.390;2023-07-29T05:51:07;100274.38;;;18.00;100.00
56681;BME280;42558;52.388;13.390;2023-07-29T05:53:37;100274.82;;;17.97;100.00
56681;BME280;42558;52.388;13.390;2023-07-29T05:56:07;100271.80;;;17.89;100.00
56681;BME280;42558;52.388;13.390;2023-07-29T05:58:36;100264.59;;;18.08;100.00
56681;BME280;42558;52.388;13.390;2023-07-29T06:01:06;100261.55;;;18.15;100.00
56681;BME280;42558;52.388;13.390;2023-07-29T06:03:36;100259.05;;;18.23;100.00
56681;BME280;42558;52.388;13.390;2023-07-29T06:06:07;100259.08;;;18.35;100.00
56681;BME280;42558;52.388;13.390;2023-07-29T06:08:36;100252.08;;;18.57;100.00
56681;BME280;42558;52.388;13.390;2023-07-29T06:11:06;100249.43;;;18.70;100.00
56681;BME280;42558;52.388;13.390;2023-07-29T06:13:36;100251.30;;;18.53;100.00
56681;BME280;42558;52.388;13.390;2023-07-29T06:16:06;100246.92;;;18.64;100.00
56681;BME280;42558;52.388;13.390;2023-07-29T06:18:36;100242.42;;;18.85;100.00
56681;BME280;42558;52.388;13.390;2023-07-29T06:21:06;100241.63;;;18.81;100.00
56681;BME280;42558;52.388;13.390;2023-07-29T06:23:37;100237.27;;;19.14;100.00
56681;BME280;42558;52.388;13.390;2023-07-29T06:26:07;100240.18;;;19.48;100.00
56681;BME280;42558;52.388;13.390;2023-07-29T06:28:37;100239.30;;;19.47;100.00
56681;BME280;42558;52.388;13.390;2023-07-29T06:31:07;100239.09;;;19.54;100.00
56681;BME280;42558;52.388;13.390;2023-07-29T06:33:37;100244.16;;;19.85;100.00
56681;BME280;42558;52.388;13.390;2023-07-29T06:36:07;100252.87;;;19.76;100.00
56681;BME280;42558;52.388;13.390;2023-07-29T06:38:37;100248.31;;;20.16;100.00
56681;BME280;42558;52.388;13.390;2023-07-29T06:41:08;100253.23;;;20.13;100.00
56681;BME280;42558;52.388;13.390;2023-07-29T06:43:42;100259.90;;;20.16;100.00
56681;BME280;42558;52.388;13.390;2023-07-29T06:46:12;100257.05;;;20.06;100.00
56681;BME280;42558;52.388;13.390;2023-07-29T06:48:42;100264.05;;;20.62;100.00
56681;BME280;42558;52.388;13.390;2023-07-29T06:51:12;100268.08;;;20.84;100.00
56681;BME280;42558;52.388;13.390;2023-07-29T06:53:42;100267.31;;;21.10;100.00
56681;BME280;42558;52.388;13.390;2023-07-29T06:56:12;100271.03;;;20.62;100.00
56681;BME280;42558;52.388;13.390;2023-07-29T06:58:42;100268.61;;;20.89;100.00
56681;BME280;42558;52.388;13.390;2023-07-29T07:01:11;100270.10;;;21.07;100.00
56681;BME280;42558;52.388;13.390;2023-07-29T07:03:41;100273.56;;;21.10;100.00
56681;BME280;42558;52.388;13.390;2023-07-29T07:06:11;100271.75;;;21.39;100.00
56681;BME280;42558;52.388;13.390;2023-07-29T07:08:41;100269.70;;;21.22;100.00
56681;BME280;42558;52.388;13.390;2023-07-29T07:11:11;100271.68;;;21.32;100.00
56681;BME280;42558;52.388;13.390;2023-07-29T07:13:41;100272.23;;;21.08;100.00
56681;BME280;42558;52.388;13.390;2023-07-29T07:16:11;100268.90;;;21.44;100.00
56681;BME280;42558;52.388;13.390;2023-07-29T07:18:41;100270.06;;;21.77;100.00
56681;BME280;42558;52.388;13.390;2023-07-29T07:21:11;100269.55;;;22.25;100.00
56681;BME280;42558;52.388;13.390;2023-07-29T07:23:40;100275.67;;;22.37;99.52
56681;BME280;42558;52.388;13.390;2023-07-29T07:26:10;100275.91;;;22.27;99.30
56681;BME280;42558;52.388;13.390;2023-07-29T07:28:40;100278.42;;;22.06;99.25
56681;BME280;42558;52.388;13.390;2023-07-29T07:31:10;100282.56;;;22.04;99.21
56681;BME280;42558;52.388;13.390;2023-07-29T07:33:40;100278.55;;;22.11;99.08
56681;BME280;42558;52.388;13.390;2023-07-29T07:36:10;100275.89;;;22.19;99.29
56681;BME280;42558;52.388;13.390;2023-07-29T07:38:40;100270.14;;;22.28;99.92
56681;BME280;42558;52.388;13.390;2023-07-29T07:41:10;100262.69;;;23.19;95.71
56681;BME280;42558;52.388;13.390;2023-07-29T07:43:40;100261.10;;;22.99;90.73
56681;BME280;42558;52.388;13.390;2023-07-29T07:46:08;100268.40;;;22.35;94.64
56681;BME280;42558;52.388;13.390;2023-07-29T07:48:38;100266.64;;;22.00;95.45
56681;BME280;42558;52.388;13.390;2023-07-29T07:51:11;100262.41;;;21.85;97.83
56681;BME280;42558;52.388;13.390;2023-07-29T07:53:41;100258.80;;;22.08;97.37
56681;BME280;42558;52.388;13.390;2023-07-29T07:56:11;100255.27;;;22.32;97.02
56681;BME280;42558;52.388;13.390;2023-07-29T07:58:41;100256.77;;;22.18;96.37
56681;BME280;42558;52.388;13.390;2023-07-29T08:01:11;100258.30;;;21.89;97.97
56681;BME280;42558;52.388;13.390;2023-07-29T08:03:41;100258.14;;;22.01;98.90
56681;BME280;42558;52.388;13.390;2023-07-29T08:06:12;100256.41;;;21.92;98.98
56681;BME280;42558;52.388;13.390;2023-07-29T08:08:42;100251.98;;;21.82;98.31
56681;BME280;42558;52.388;13.390;2023-07-29T08:11:12;100251.81;;;21.86;99.81
56681;BME280;42558;52.388;13.390;2023-07-29T08:13:41;100254.44;;;21.87;100.00
56681;BME280;42558;52.388;13.390;2023-07-29T08:16:12;100253.65;;;21.93;98.76
56681;BME280;42558;52.388;13.390;2023-07-29T08:18:42;100254.72;;;21.94;99.51
56681;BME280;42558;52.388;13.390;2023-07-29T08:21:12;100247.95;;;21.88;99.26
56681;BME280;42558;52.388;13.390;2023-07-29T08:23:42;100242.28;;;22.30;97.85
56681;BME280;42558;52.388;13.390;2023-07-29T08:26:11;100241.13;;;22.52;94.31
56681;BME280;42558;52.388;13.390;2023-07-29T08:28:40;100240.16;;;22.08;96.42
56681;BME280;42558;52.388;13.390;2023-07-29T08:31:07;100238.78;;;22.20;97.45
56681;BME280;42558;52.388;13.390;2023-07-29T08:33:36;100238.25;;;21.98;98.88
56681;BME280;42558;52.388;13.390;2023-07-29T08:36:04;100229.89;;;22.10;97.16
56681;BME280;42558;52.388;13.390;2023-07-29T08:38:32;100221.65;;;22.23;97.66
56681;BME280;42558;52.388;13.390;2023-07-29T08:41:18;100227.15;;;22.28;97.11
56681;BME280;42558;52.388;13.390;2023-07-29T08:44:18;100228.27;;;22.39;96.74
56681;BME280;42558;52.388;13.390;2023-07-29T08:46:48;100223.29;;;22.47;95.57
56681;BME280;42558;52.388;13.390;2023-07-29T08:49:18;100222.99;;;22.58;95.41
56681;BME280;42558;52.388;13.390;2023-07-29T08:51:50;100219.16;;;23.07;94.60
56681;BME280;42558;52.388;13.390;2023-07-29T08:54:21;100215.78;;;22.78;91.41
56681;BME280;42558;52.388;13.390;2023-07-29T08:56:51;100219.42;;;22.89;92.75
56681;BME280;42558;52.388;13.390;2023-07-29T08:59:22;100219.23;;;22.77;91.01
56681;BME280;42558;52.388;13.390;2023-07-29T09:01:54;100222.08;;;22.42;93.95
56681;BME280;42558;52.388;13.390;2023-07-29T09:04:26;100218.61;;;22.26;93.91
56681;BME280;42558;52.388;13.390;2023-07-29T09:06:59;100216.41;;;22.24;94.44
56681;BME280;42558;52.388;13.390;2023-07-29T09:09:30;100218.96;;;21.97;97.56
56681;BME280;42558;52.388;13.390;2023-07-29T09:11:59;100218.52;;;22.33;98.49
56681;BME280;42558;52.388;13.390;2023-07-29T09:14:28;100213.53;;;22.72;95.41
56681;BME280;42558;52.388;13.390;2023-07-29T09:16:56;100207.33;;;22.79;94.05
56681;BME280;42558;52.388;13.390;2023-07-29T09:19:27;100208.38;;;22.68;92.05
56681;BME280;42558;52.388;13.390;2023-07-29T09:21:56;100205.20;;;22.75;93.47
56681;BME280;42558;52.388;13.390;2023-07-29T09:24:25;100201.77;;;22.79;91.60
56681;BME280;42558;52.388;13.390;2023-07-29T09:26:59;100203.12;;;23.00;90.06
56681;BME280;42558;52.388;13.390;2023-07-29T09:29:29;100196.74;;;23.14;91.16
56681;BME280;42558;52.388;13.390;2023-07-29T09:32:22;100189.59;;;23.36;91.26
56681;BME280;42558;52.388;13.390;2023-07-29T09:34:51;100190.92;;;22.93;89.75
56681;BME280;42558;52.388;13.390;2023-07-29T09:37:22;100191.64;;;22.97;91.55
56681;BME280;42558;52.388;13.390;2023-07-29T09:39:53;100188.49;;;23.29;90.77
56681;BME280;42558;52.388;13.390;2023-07-29T09:42:22;100185.64;;;23.33;90.58
56681;BME280;42558;52.388;13.390;2023-07-29T09:44:53;100185.40;;;23.60;88.75
56681;BME280;42558;52.388;13.390;2023-07-29T09:47:26;100181.17;;;23.18;86.13
56681;BME280;42558;52.388;13.390;2023-07-29T09:49:55;100177.05;;;23.47;87.30
56681;BME280;42558;52.388;13.390;2023-07-29T09:52:25;100177.56;;;23.62;86.49
56681;BME280;42558;52.388;13.390;2023-07-29T09:54:55;100171.68;;;23.83;85.72
56681;BME280;42558;52.388;13.390;2023-07-29T09:57:25;100169.20;;;23.79;86.55
56681;BME280;42558;52.388;13.390;2023-07-29T09:59:56;100166.05;;;23.56;84.98
56681;BME280;42558;52.388;13.390;2023-07-29T10:02:26;100171.93;;;23.42;85.49
56681;BME280;42558;52.388;13.390;2023-07-29T10:04:59;100167.23;;;24.18;86.79
56681;BME280;42558;52.388;13.390;2023-07-29T10:07:30;100163.20;;;24.26;81.60
56681;BME280;42558;52.388;13.390;2023-07-29T10:10:03;100161.86;;;23.75;84.77
56681;BME280;42558;52.388;13.390;2023-07-29T10:12:35;100161.73;;;23.71;85.62
56681;BME280;42558;52.388;13.390;2023-07-29T10:15:06;100150.77;;;23.27;86.74
56681;BME280;42558;52.388;13.390;2023-07-29T10:17:38;100143.91;;;23.53;87.87
56681;BME280;42558;52.388;13.390;2023-07-29T10:20:10;100148.85;;;23.59;85.81
56681;BME280;42558;52.388;13.390;2023-07-29T10:22:42;100142.96;;;24.00;83.98
56681;BME280;42558;52.388;13.390;2023-07-29T10:25:18;100141.94;;;24.17;82.99
56681;BME280;42558;52.388;13.390;2023-07-29T10:27:56;100144.08;;;24.31;79.09
56681;BME280;42558;52.388;13.390;2023-07-29T10:30:28;100134.20;;;24.37;77.29
56681;BME280;42558;52.388;13.390;2023-07-29T10:33:02;100132.02;;;24.58;75.22
56681;BME280;42558;52.388;13.390;2023-07-29T10:35:34;100126.27;;;24.35;74.40
56681;BME280;42558;52.388;13.390;2023-07-29T10:38:06;100135.56;;;24.01;75.69
56681;BME280;42558;52.388;13.390;2023-07-29T10:40:50;100133.17;;;24.33;76.84
56681;BME280;42558;52.388;13.390;2023-07-29T10:43:34;100124.37;;;24.60;75.44
56681;BME280;42558;52.388;13.390;2023-07-29T10:51:27;100096.01;;;24.59;74.16
56681;BME280;42558;52.388;13.390;2023-07-29T10:54:03;100091.64;;;24.51;73.84
56681;BME280;42558;52.388;13.390;2023-07-29T10:56:35;100097.51;;;24.55;72.78
56681;BME280;42558;52.388;13.390;2023-07-29T11:01:52;100094.98;;;24.39;74.65
56681;BME280;42558;52.388;13.390;2023-07-29T11:15:19;100132.59;;;23.32;83.48
56681;BME280;42558;52.388;13.390;2023-07-29T11:18:01;100177.11;;;22.29;94.80
56681;BME280;42558;52.388;13.390;2023-07-29T11:20:33;100156.36;;;21.08;100.00
56681;BME280;42558;52.388;13.390;2023-07-29T11:23:05;100155.14;;;21.03;100.00
56681;BME280;42558;52.388;13.390;2023-07-29T11:25:33;100145.50;;;20.94;100.00
56681;BME280;42558;52.388;13.390;2023-07-29T11:28:02;100154.12;;;20.74;100.00
56681;BME280;42558;52.388;13.390;2023-07-29T11:30:39;100150.06;;;20.86;100.00
56681;BME280;42558;52.388;13.390;2023-07-29T11:33:09;100146.76;;;20.93;100.00
56681;BME280;42558;52.388;13.390;2023-07-29T11:35:40;100143.02;;;20.88;100.00
56681;BME280;42558;52.388;13.390;2023-07-29T11:38:16;100144.91;;;20.95;100.00
56681;BME280;42558;52.388;13.390;2023-07-29T11:41:01;100137.22;;;21.09;100.00
56681;BME280;42558;52.388;13.390;2023-07-29T11:43:36;100126.16;;;21.39;100.00
56681;BME280;42558;52.388;13.390;2023-07-29T11:46:04;100122.61;;;21.56;100.00
56681;BME280;42558;52.388;13.390;2023-07-29T11:48:33;100122.09;;;21.64;100.00
56681;BME280;42558;52.388;13.390;2023-07-29T11:51:02;100120.86;;;21.56;100.00
56681;BME280;42558;52.388;13.390;2023-07-29T11:53:32;100113.25;;;21.45;100.00
56681;BME280;42558;52.388;13.390;2023-07-29T11:56:01;100112.16;;;21.40;100.00
56681;BME280;42558;52.388;13.390;2023-07-29T11:58:33;100113.97;;;21.31;100.00
56681;BME280;42558;52.388;13.390;2023-07-29T12:01:03;100118.11;;;21.17;100.00
56681;BME280;42558;52.388;13.390;2023-07-29T12:03:33;100117.11;;;21.15;100.00
56681;BME280;42558;52.388;13.390;2023-07-29T12:06:03;100117.94;;;21.17;100.00
56681;BME280;42558;52.388;13.390;2023-07-29T12:08:33;100118.13;;;21.03;100.00
56681;BME280;42558;52.388;13.390;2023-07-29T12:11:04;100116.56;;;20.84;100.00
56681;BME280;42558;52.388;13.390;2023-07-29T12:13:33;100116.21;;;20.74;100.00
56681;BME280;42558;52.388;13.390;2023-07-29T12:16:05;100117.51;;;20.69;100.00
56681;BME280;42558;52.388;13.390;2023-07-29T12:18:36;100120.46;;;20.66;100.00
56681;BME280;42558;52.388;13.390;2023-07-29T12:21:04;100129.27;;;20.60;100.00
56681;BME280;42558;52.388;13.390;2023-07-29T12:23:32;100135.13;;;20.57;100.00
56681;BME280;42558;52.388;13.390;2023-07-29T12:26:01;100138.80;;;20.49;100.00
56681;BME280;42558;52.388;13.390;2023-07-29T12:28:30;100143.95;;;20.45;100.00
56681;BME280;42558;52.388;13.390;2023-07-29T12:30:58;100142.70;;;20.39;100.00
56681;BME280;42558;52.388;13.390;2023-07-29T12:33:36;100139.86;;;20.24;100.00
56681;BME280;42558;52.388;13.390;2023-07-29T12:36:10;100138.11;;;20.28;100.00
56681;BME280;42558;52.388;13.390;2023-07-29T12:38:37;100134.23;;;20.47;100.00
56681;BME280;42558;52.388;13.390;2023-07-29T12:41:07;100126.66;;;20.68;100.00
56681;BME280;42558;52.388;13.390;2023-07-29T12:43:38;100123.18;;;20.61;100.00
56681;BME280;42558;52.388;13.390;2023-07-29T12:46:08;100115.58;;;20.63;100.00
56681;BME280;42558;52.388;13.390;2023-07-29T12:48:38;100116.61;;;20.50;100.00
56681;BME280;42558;52.388;13.390;2023-07-29T12:51:08;100116.70;;;20.66;100.00
56681;BME280;42558;52.388;13.390;2023-07-29T12:53:38;100112.42;;;20.47;100.00
56681;BME280;42558;52.388;13.390;2023-07-29T12:56:08;100107.56;;;20.28;100.00
56681;BME280;42558;52.388;13.390;2023-07-29T12:58:38;100105.21;;;20.29;100.00
56681;BME280;42558;52.388;13.390;2023-07-29T13:01:08;100108.42;;;20.68;100.00
56681;BME280;42558;52.388;13.390;2023-07-29T13:03:39;100110.25;;;20.81;100.00
56681;BME280;42558;52.388;13.390;2023-07-29T13:06:09;100110.56;;;21.05;100.00
56681;BME280;42558;52.388;13.390;2023-07-29T13:08:39;100112.60;;;21.16;100.00
56681;BME280;42558;52.388;13.390;2023-07-29T13:11:09;100116.17;;;20.98;100.00
56681;BME280;42558;52.388;13.390;2023-07-29T13:13:39;100119.02;;;20.76;100.00